• Join FlightAware (Why Join?)
  • Login
  • US Flag 
08:42AM EST


 

Airport Tracker/Info


-or-


 

Live Flight TrackerFlight Track Log ✈ N415JA ✈ 29-Oct-2013 ✈ KTMB - KFNL

Flight Track Log - Related Links

Times and Time Zones

All times are in EDT time to prevent confusion due to time zone crossing. See the N415JA flight status page for this flight to view local times or setup timezone preferences in your user account.

Time Position Orientation Groundspeed Altitude Reporting Facility
EDT Latitude Longitude Course Direction KTS MPH feet Rate Location/Type
08:11AM 25.6425 -80.4128 110° East 139 160 700  Level Miami Center
08:13AM 25.6169 -80.3361 110° East 180 207 2,400 1,440 Climbing Miami Center
08:14AM 25.6414 -80.2817 64° Northeast 188 216 4,600 1,680 Climbing Miami Center
08:15AM 25.6900 -80.2531 28° Northeast 267 307 5,900 2,160 Climbing Miami Center
08:16AM 25.7625 -80.2828 340° North 271 312 8,800 2,340 Climbing Miami Center
08:16AM 25.7750 -80.2853 350° North 276 318 8,700 2,400 Descending Miami Center
08:17AM 25.8217 -80.3419 312° West 286 329 11,300 2,460 Climbing Miami Center
08:17AM 25.8319 -80.3469 336° Northwest 283 326 11,200 1,800 Descending Miami Center
08:18AM 25.8850 -80.4039 316° Northwest 385 443 13,400 2,040 Climbing Miami Center
08:19AM 25.9522 -80.4728 317° Northwest 333 383 15,300 1,800 Climbing Miami Center
08:20AM 26.0153 -80.5394 316° Northwest 320 368 17,100 1,500 Climbing Miami Center
08:21AM 26.0889 -80.5997 324° Northwest 314 361 18,300 1,440 Climbing Miami Center
08:22AM 26.1647 -80.6553 327° Northwest 320 368 20,000 1,500 Climbing Miami Center
08:23AM 26.2406 -80.7133 326° Northwest 325 374 21,300 1,200 Climbing Miami Center
08:24AM 26.3203 -80.7739 326° Northwest 333 383 22,400 1,260 Climbing Miami Center
08:25AM 26.4022 -80.8344 327° Northwest 340 391 23,900 1,320 Climbing Miami Center
08:26AM 26.4861 -80.8931 328° Northwest 340 391 25,100 1,320 Climbing Miami Center
08:27AM 26.5703 -80.9539 327° Northwest 347 399 26,600 1,260 Climbing Miami Center
08:28AM 26.6519 -81.0147 326° Northwest 352 405 27,700 1,080 Climbing Miami Center
08:29AM 26.7297 -81.0711 327° Northwest 357 411 28,800 1,140 Climbing Miami Center
08:30AM 26.8136 -81.1322 327° Northwest 365 420 30,000 1,380 Climbing Miami Center
08:31AM 26.9014 -81.1983 326° Northwest 365 420 31,600 1,080 Climbing Miami Center
08:32AM 26.9831 -81.2597 326° Northwest 359 413 32,200 480 Climbing Miami Center
08:33AM 27.0564 -81.3161 326° Northwest 359 413 32,600 600 Climbing Miami Center
08:34AM 27.1400 -81.3775 327° Northwest 359 413 33,400 900 Climbing Miami Center
08:35AM 27.2239 -81.4392 327° Northwest 365 420 34,400 960 Climbing Miami Center
08:36AM 27.3094 -81.5033 326° Northwest 355 409 35,400 780 Climbing Miami Center
08:37AM 27.3889 -81.5650 325° Northwest 342 394 36,000 300 Climbing Miami Center
08:38AM 27.4683 -81.6244 326° Northwest 342 394 36,000 120 Level Miami Center
08:39AM 27.5436 -81.6789 327° Northwest 342 394 36,300 600 Climbing Miami Center
08:40AM 27.6292 -81.7436 326° Northwest 342 394 37,300 600 Climbing Miami Center
08:42AM 27.7597 -81.8350 328° Northwest 321 369 37,900 300 Climbing Jacksonville Center
08:43AM 27.8394 -81.8953 326° Northwest 327 376 38,100 300 Climbing Jacksonville Center
08:44AM 27.9108 -81.9556 323° Northwest 332 382 38,500 360 Climbing Jacksonville Center
08:45AM 27.9800 -82.0067 327° Northwest 332 382 38,900 420 Climbing Jacksonville Center
08:46AM 28.0472 -82.0672 322° Northwest 324 373 39,400 420 Climbing Jacksonville Center
08:47AM 28.1100 -82.1256 321° Northwest 308 354 39,800 300 Climbing Jacksonville Center
08:48AM 28.1772 -82.1839 323° Northwest 303 349 40,000 60 Climbing Jacksonville Center
08:49AM 28.2400 -82.2400 322° Northwest 303 349 40,000  Level Jacksonville Center
08:50AM 28.3072 -82.2983 323° Northwest 308 354 40,000  Level Jacksonville Center
08:51AM 28.3722 -82.3569 322° Northwest 303 349 40,000  Level Jacksonville Center
08:52AM 28.4369 -82.4181 320° Northwest 303 349 40,000  Level Jacksonville Center
08:53AM 28.5039 -82.4719 325° Northwest 303 349 40,000  Level Jacksonville Center
08:54AM 28.5689 -82.5356 319° Northwest 303 349 40,000  Level Jacksonville Center
08:55AM 28.6336 -82.5944 321° Northwest 303 349 40,000  Level Jacksonville Center
08:56AM 28.6944 -82.6511 321° Northwest 303 349 40,000  Level Jacksonville Center
08:57AM 28.7592 -82.7103 321° Northwest 298 343 40,000  Level Jacksonville Center
08:58AM 28.8261 -82.7717 321° Northwest 298 343 40,000  Level Jacksonville Center
08:59AM 28.8928 -82.8308 322° Northwest 304 350 40,000  Level Jacksonville Center
09:00AM 28.9575 -82.8903 321° Northwest 304 350 40,000  Level Jacksonville Center
09:01AM 29.0203 -82.9472 322° Northwest 304 350 40,000  Level Jacksonville Center
09:02AM 29.0869 -83.0089 321° Northwest 304 350 40,000  Level Jacksonville Center
09:03AM 29.1536 -83.0686 322° Northwest 303 349 40,000  Level Jacksonville Center
09:04AM 29.2183 -83.1306 320° Northwest 303 349 40,000  Level Jacksonville Center
09:05AM 29.2850 -83.1903 322° Northwest 308 354 40,000  Level Jacksonville Center
09:06AM 29.3600 -83.2572 322° Northwest 308 354 40,000  Level Jacksonville Center
09:07AM 29.4161 -83.3097 321° Northwest 302 348 40,000  Level Jacksonville Center
09:08AM 29.4806 -83.3719 320° Northwest 302 348 40,000  Level Jacksonville Center
09:09AM 29.5306 -83.4486 307° West 302 348 40,000  Level Jacksonville Center
09:10AM 29.5761 -83.5278 304° West 302 348 40,000  Level Jacksonville Center
09:11AM 29.6236 -83.6094 304° West 308 354 40,000  Level Jacksonville Center
09:12AM 29.6692 -83.6861 304° West 308 354 40,000  Level Jacksonville Center
09:13AM 29.7206 -83.7750 304° West 302 348 40,000  Level Jacksonville Center
09:14AM 29.7661 -83.8567 303° West 302 348 40,000  Level Jacksonville Center
09:15AM 29.8156 -83.9364 306° West 302 348 40,000  Level Jacksonville Center
09:16AM 29.8608 -84.0158 303° West 302 348 40,000  Level Jacksonville Center
09:17AM 29.9058 -84.0978 302° West 302 348 40,000  Level Jacksonville Center
09:18AM 29.9531 -84.1775 304° West 302 348 40,000  Level Jacksonville Center
09:19AM 29.9919 -84.2475 303° West 295 339 40,000  Level Jacksonville Center
09:20AM 30.0372 -84.3275 303° West 295 339 40,000  Level Jacksonville Center
09:21AM 30.0822 -84.4097 302° West 295 339 40,000  Level Jacksonville Center
09:22AM 30.1311 -84.4897 305° West 300 345 40,000  Level Jacksonville Center
09:23AM 30.1761 -84.5697 303° West 300 345 40,000  Level Jacksonville Center
09:24AM 30.2211 -84.6497 303° West 300 345 40,000  Level Jacksonville Center
09:25AM 30.2678 -84.7325 303° West 300 345 40,000  Level Jacksonville Center
09:26AM 30.3106 -84.8078 303° West 305 351 40,000  Level Jacksonville Center
09:27AM 30.3633 -84.9053 302° West 305 351 40,000  Level Jacksonville Center
09:28AM 30.4100 -84.9856 304° West 300 345 40,000  Level Jacksonville Center
09:29AM 30.4547 -85.0686 302° West 300 345 40,000  Level Jacksonville Center
09:30AM 30.5033 -85.1492 305° West 300 345 40,000  Level Jacksonville Center
09:31AM 30.5478 -85.2322 302° West 300 345 40,000  Level Jacksonville Center
09:32AM 30.5942 -85.3131 304° West 300 345 40,000  Level Jacksonville Center
09:33AM 30.6406 -85.3964 303° West 300 345 40,000  Level Jacksonville Center
09:34AM 30.6850 -85.4797 302° West 300 345 40,000  Level Jacksonville Center
09:35AM 30.7314 -85.5631 303° West 305 351 40,000  Level Jacksonville Center
09:36AM 30.7775 -85.6467 303° West 300 345 40,000  Level Jacksonville Center
09:37AM 30.8217 -85.7278 302° West 300 345 40,000  Level Jacksonville Center
09:38AM 30.8678 -85.8136 302° West 300 345 40,000  Level Jacksonville Center
09:39AM 30.9158 -85.8953 304° West 300 345 40,000  Level Jacksonville Center
09:40AM 30.9600 -85.9764 302° West 300 345 40,000  Level Jacksonville Center
09:41AM 31.0036 -86.0653 300° West 305 351 40,000  Level Jacksonville Center
09:42AM 31.0497 -86.1467 303° West 305 351 40,000  Level Jacksonville Center
09:43AM 31.0894 -86.2256 300° West 304 350 40,000  Level Jacksonville Center
09:44AM 31.1350 -86.3097 302° West 304 350 40,000  Level Jacksonville Center
09:45AM 31.1786 -86.3939 301° West 304 350 40,000  Level Jacksonville Center
09:47AM 31.2822 -86.5803 303° West 308 354 40,000  Level Atlanta Center
09:48AM 31.3286 -86.6642 303° West 308 354 40,000  Level Atlanta Center
09:49AM 31.3808 -86.7558 304° West 313 360 40,000  Level Atlanta Center
09:50AM 31.4189 -86.8250 303° West 313 360 40,000  Level Atlanta Center
09:51AM 31.4667 -86.9214 300° West 301 346 40,000  Level Atlanta Center
09:52AM 31.5189 -87.0108 304° West 306 352 40,000  Level Atlanta Center
09:53AM 31.5647 -87.0975 302° West 306 352 40,000  Level Atlanta Center
09:54AM 31.6086 -87.1844 301° West 306 352 40,000  Level Atlanta Center
09:55AM 31.6544 -87.2689 303° West 306 352 40,000  Level Atlanta Center
09:56AM 31.7000 -87.3558 302° West 306 352 40,000  Level Atlanta Center
09:57AM 31.7456 -87.4456 301° West 306 352 40,000  Level Atlanta Center
09:58AM 31.7911 -87.5303 302° West 311 358 40,000  Level Atlanta Center
09:59AM 31.8347 -87.6150 301° West 311 358 40,000  Level Atlanta Center
10:00AM 31.9078 -87.7536 302° West 316 364 40,000  Level Memphis Center
10:01AM 31.9514 -87.8406 301° West 316 364 40,000  Level Memphis Center
10:02AM 31.9989 -87.9275 303° West 316 364 40,000  Level Memphis Center
10:03AM 32.0425 -88.0169 300° West 316 364 40,000  Level Memphis Center
10:04AM 32.0878 -88.1017 302° West 316 364 40,000  Level Memphis Center
10:05AM 32.1311 -88.1911 300° West 316 364 40,000  Level Memphis Center
10:06AM 32.1722 -88.2689 302° West 316 364 40,000  Level Memphis Center
10:07AM 32.2217 -88.3658 301° West 316 364 40,000  Level Memphis Center
10:08AM 32.2650 -88.4558 300° West 316 364 40,000  Level Memphis Center
10:09AM 32.3100 -88.5433 301° West 316 364 40,000  Level Memphis Center
10:10AM 32.3508 -88.6211 302° West 311 358 40,000  Level Memphis Center
10:11AM 32.3978 -88.7039 304° West 311 358 40,000  Level Memphis Center
10:12AM 32.4408 -88.7892 301° West 311 358 40,000  Level Memphis Center
10:13AM 32.4856 -88.8772 301° West 311 358 40,000  Level Memphis Center
10:14AM 32.5283 -88.9650 300° West 311 358 40,000  Level Memphis Center
10:15AM 32.5711 -89.0508 301° West 311 358 40,000  Level Memphis Center
10:16AM 32.6200 -89.1486 301° West 311 358 40,000  Level Memphis Center
10:17AM 32.6606 -89.2319 300° West 311 358 40,000  Level Memphis Center
10:18AM 32.7053 -89.3203 301° West 311 358 40,000  Level Memphis Center
10:19AM 32.7497 -89.4089 301° West 316 364 40,000  Level Memphis Center
10:20AM 32.7919 -89.4947 300° West 311 358 40,000  Level Memphis Center
10:21AM 32.8344 -89.5786 301° West 311 358 40,000  Level Memphis Center
10:22AM 32.8767 -89.6647 300° West 311 358 40,000  Level Memphis Center
10:23AM 32.9208 -89.7583 299° West 311 358 40,000  Level Memphis Center
10:24AM 32.9611 -89.8472 298° West 306 352 40,000  Level Memphis Center
10:25AM 33.0011 -89.9239 302° West 312 359 40,000  Level Memphis Center
10:26AM 33.0492 -90.0178 301° West 319 367 40,000  Level Memphis Center
10:27AM 33.0892 -90.0994 300° West 312 359 40,000  Level Memphis Center
10:28AM 33.1331 -90.1861 301° West 307 353 40,000  Level Memphis Center
10:29AM 33.1750 -90.2753 299° West 307 353 40,000  Level Memphis Center
10:30AM 33.2189 -90.3647 300° West 307 353 40,000  Level Memphis Center
10:31AM 33.2606 -90.4517 300° West 307 353 40,000  Level Memphis Center
10:32AM 33.3022 -90.5386 300° West 307 353 40,000  Level Memphis Center
10:33AM 33.3458 -90.6283 300° West 312 359 40,000  Level Memphis Center
10:34AM 33.3894 -90.7181 300° West 312 359 40,000  Level Memphis Center
10:35AM 33.4331 -90.8078 300° West 312 359 40,000  Level Memphis Center
10:36AM 33.4806 -90.9075 300° West 312 359 40,000  Level Memphis Center
10:37AM 33.5219 -90.9950 300° West 312 359 40,000  Level Memphis Center
10:38AM 33.5633 -91.0853 299° West 312 359 40,000  Level Memphis Center
10:39AM 33.6086 -91.1778 300° West 312 359 40,000  Level Memphis Center
10:40AM 33.6519 -91.2656 301° West 312 359 40,000  Level Memphis Center
10:41AM 33.6950 -91.3583 299° West 312 359 40,000  Level Memphis Center
10:42AM 33.7381 -91.4489 300° West 312 359 40,000  Level Memphis Center
10:43AM 33.7789 -91.5417 298° West 312 359 40,000  Level Memphis Center
10:44AM 33.8200 -91.6222 302° West 317 365 40,000  Level Memphis Center
10:45AM 33.8689 -91.7231 300° West 317 365 40,000  Level Memphis Center
10:46AM 33.9158 -91.8164 301° West 317 365 40,000  Level Memphis Center
10:47AM 33.9606 -91.9125 299° West 317 365 40,000  Level Memphis Center
10:48AM 33.9992 -92.0033 297° West 317 365 40,000  Level Memphis Center
10:49AM 34.0417 -92.0969 299° West 317 365 40,000  Level Memphis Center
10:50AM 34.0844 -92.1831 301° West 311 358 40,000  Level Memphis Center
10:51AM 34.1247 -92.2792 297° West 311 358 40,000  Level Memphis Center
10:52AM 34.1669 -92.3706 299° West 317 365 40,000  Level Memphis Center
10:53AM 34.2053 -92.4542 299° West 317 365 40,000  Level Memphis Center
10:54AM 34.2475 -92.5483 298° West 317 365 40,000  Level Memphis Center
10:55AM 34.2897 -92.6397 299° West 317 365 40,000  Level Memphis Center
10:56AM 34.3400 -92.7442 300° West 322 371 40,000  Level Memphis Center
10:57AM 34.3739 -92.8258 297° West 316 364 40,000  Level Memphis Center
10:58AM 34.4156 -92.9200 298° West 310 357 40,000  Level Memphis Center
10:59AM 34.4578 -93.0094 300° West 310 357 40,000  Level Memphis Center
11:00AM 34.4994 -93.1067 297° West 315 362 40,000  Level Memphis Center
11:01AM 34.5411 -93.1986 299° West 315 362 40,000  Level Memphis Center
11:02AM 34.5828 -93.2908 299° West 315 362 40,000  Level Memphis Center
11:03AM 34.6244 -93.3806 299° West 315 362 40,000  Level Memphis Center
11:04AM 34.6681 -93.4781 299° West 320 368 40,000  Level Memphis Center
11:05AM 34.7072 -93.5706 297° West 320 368 40,000  Level Memphis Center
11:06AM 34.7486 -93.6631 299° West 320 368 40,000  Level Memphis Center
11:07AM 34.7983 -93.7536 304° West 315 362 40,000  Level Memphis Center
11:08AM 34.8483 -93.8392 305° West 320 368 40,000  Level Memphis Center
11:09AM 34.9061 -93.9300 308° West 325 374 40,000  Level Memphis Center
11:10AM 34.9600 -94.0211 306° West 330 380 40,000  Level Memphis Center
11:11AM 35.0114 -94.1144 304° West 338 389 40,000  Level Memphis Center
11:12AM 35.0650 -94.2056 306° West 338 389 40,000  Level Memphis Center
11:13AM 35.1206 -94.2969 307° West 333 383 40,000  Level Memphis Center
11:14AM 35.1739 -94.3883 306° West 339 390 40,000  Level Memphis Center
11:15AM 35.2314 -94.4803 307° West 339 390 40,000  Level Memphis Center
11:18AM 35.3456 -94.6931 303° West 334 384 40,000  Level Fort Worth Center
11:19AM 35.3994 -94.7828 306° West 334 384 40,000  Level Fort Worth Center
11:20AM 35.4514 -94.8756 305° West 329 379 40,000  Level Fort Worth Center
11:21AM 35.5033 -94.9683 305° West 329 379 40,000  Level Fort Worth Center
11:22AM 35.5508 -95.0511 305° West 329 379 40,000  Level Fort Worth Center
11:23AM 35.6025 -95.1417 305° West 329 379 40,000  Level Fort Worth Center
11:24AM 35.6564 -95.2319 306° West 329 379 40,000  Level Fort Worth Center
11:25AM 35.7058 -95.3228 304° West 329 379 40,000  Level Fort Worth Center
11:26AM 35.7878 -95.4658 305° West 330 380 40,000  Level Kansas City Center
11:27AM 35.8406 -95.5597 305° West 330 380 40,000  Level Kansas City Center
11:28AM 35.8939 -95.6542 305° West 333 383 40,000  Level Kansas City Center
11:29AM 35.9458 -95.7483 304° West 331 381 40,000  Level Kansas City Center
11:30AM 35.9997 -95.8442 305° West 335 386 40,000  Level Kansas City Center
11:31AM 36.0533 -95.9400 305° West 336 387 40,000  Level Kansas City Center
11:33AM 36.1157 -96.0508 305° West  Level FlightAware Approximate
11:33AM 36.1606 -96.1342 305° West 340 391 40,000  Level Kansas City Center
11:34AM 36.2247 -96.2511 304° West 341 392 40,000  Level Kansas City Center
11:35AM 36.2792 -96.3483 305° West 342 394 40,000  Level Kansas City Center
11:36AM 36.3336 -96.4461 305° West 342 394 40,000  Level Kansas City Center
11:37AM 36.3858 -96.5439 304° West 339 390 40,000  Level Kansas City Center
11:38AM 36.4394 -96.6417 304° West 341 392 40,000  Level Kansas City Center
11:40AM 36.4914 -96.7394 303° West 339 390 40,000  Level Kansas City Center
11:41AM 36.5472 -96.8383 305° West 341 392 40,000  Level Kansas City Center
11:42AM 36.5972 -96.9364 302° West 341 392 40,000  Level Kansas City Center
11:43AM 36.6478 -97.0344 303° West 339 390 40,000  Level Kansas City Center
11:44AM 36.7150 -97.1511 306° West 342 394 40,000  Level Kansas City Center
11:45AM 36.7658 -97.2494 303° West 341 392 40,000  Level Kansas City Center
11:46AM 36.8175 -97.3472 303° West 339 390 40,000  Level Kansas City Center
11:47AM 36.8639 -97.4339 304° West 338 389 40,000  Level Kansas City Center
11:48AM 36.9264 -97.5522 303° West 338 389 40,000  Level Kansas City Center
11:49AM 36.9778 -97.6503 303° West 338 389 40,000  Level Kansas City Center
11:50AM 37.0292 -97.7469 304° West 335 386 40,000  Level Kansas City Center
11:51AM 37.0811 -97.8453 304° West 337 388 40,000  Level Kansas City Center
11:52AM 37.1328 -97.9450 303° West 340 391 40,000  Level Kansas City Center
11:53AM 37.1850 -98.0444 303° West 340 391 40,000  Level Kansas City Center
11:54AM 37.2369 -98.1433 303° West 340 391 40,000  Level Kansas City Center
11:55AM 37.2894 -98.2436 303° West 341 392 40,000  Level Kansas City Center
11:56AM 37.3522 -98.3633 303° West 341 392 40,000  Level Kansas City Center
11:57AM 37.4033 -98.4650 302° West 342 394 40,000  Level Kansas City Center
11:58AM 37.4558 -98.5661 303° West 342 394 40,000  Level Kansas City Center
11:59AM 37.5078 -98.6667 303° West 342 394 40,000  Level Kansas City Center
12:00PM 37.5597 -98.7681 303° West 342 394 40,000  Level Kansas City Center
12:01PM 37.6117 -98.8681 303° West 341 392 40,000  Level Kansas City Center
12:02PM 37.6617 -98.9689 302° West 339 390 40,000  Level Kansas City Center
12:03PM 37.7133 -99.0711 303° West 343 395 40,000  Level Kansas City Center
12:04PM 37.7644 -99.1717 303° West 342 394 40,000  Level Kansas City Center
12:05PM 37.8244 -99.2936 302° West 340 391 40,000  Level Kansas City Center
12:06PM 37.8764 -99.3956 303° West 343 395 40,000  Level Kansas City Center
12:07PM 37.9264 -99.4967 302° West 343 395 40,000  Level Kansas City Center
12:08PM 37.9831 -99.6111 302° West 343 395 40,000  Level Kansas City Center
12:09PM 38.0322 -99.7092 303° West 345 397 40,000  Level Kansas City Center
12:10PM 38.0800 -99.8078 302° West 344 396 40,000  Level Kansas City Center
12:11PM 38.1378 -99.9239 302° West 347 399 40,000  Level Kansas City Center
12:12PM 38.1867 -100.0239 302° West 349 402 40,000  Level Kansas City Center
12:13PM 38.2439 -100.1408 302° West 350 403 40,000  Level Kansas City Center
12:14PM 38.2925 -100.2419 302° West 350 403 40,000  Level Kansas City Center
12:16PM 38.3517 -100.3600 303° West 353 406 40,000  Level Kansas City Center
12:17PM 38.3997 -100.4608 301° West 351 404 40,000  Level Kansas City Center
12:18PM 38.4569 -100.5806 301° West 353 406 40,000  Level Kansas City Center
12:19PM 38.5061 -100.6806 302° West 351 404 40,000  Level Kansas City Center
12:20PM 38.5650 -100.8011 302° West 356 410 40,000  Level Kansas City Center
12:21PM 38.6244 -100.8981 308° West 362 417 40,000  Level Kansas City Center
12:21PM 38.6822 -100.9739 314° West 374 430 40,000  Level Denver Center
12:22PM 38.7508 -101.0675 313° West 377 434 40,000  Level Denver Center
12:23PM 38.8308 -101.1761 313° West 376 433 40,000  Level Denver Center
12:25PM 38.9000 -101.2694 314° West 377 434 40,000  Level Denver Center
12:26PM 38.9800 -101.3794 313° West 378 435 40,000  Level Denver Center
12:27PM 39.0442 -101.4653 314° West 370 426 40,000  Level Denver Center
12:28PM 39.1247 -101.5769 313° West 377 434 40,000  Level Denver Center
12:29PM 39.1925 -101.6706 313° West 373 429 40,000  Level Denver Center
12:30PM 39.2758 -101.7839 314° West 376 433 40,000  Level Denver Center
12:31PM 39.3417 -101.8753 313° West 377 434 40,000 -180 Level Denver Center
12:32PM 39.4217 -101.9867 313° West 377 434 39,700 -780 Descending Denver Center
12:33PM 39.4922 -102.0833 313° West 384 442 38,400 -1,440 Descending Denver Center
12:34PM 39.5750 -102.2000 313° West 394 453 36,800 -1,200 Descending Denver Center
12:35PM 39.6458 -102.2978 313° West 388 447 36,000 -420 Descending Denver Center
12:36PM 39.7250 -102.4100 313° West 377 434 36,000  Level Denver Center
12:37PM 39.7925 -102.5044 313° West 373 429 36,000  Level Denver Center
12:38PM 39.8594 -102.6006 312° West 374 430 36,000 -780 Level Denver Center
12:39PM 39.9422 -102.7183 313° West 394 453 34,400 -1,500 Descending Denver Center
12:40PM 40.0172 -102.8264 312° West 415 478 33,000 -1,560 Descending Denver Center
12:41PM 40.1039 -102.9494 313° West 412 474 31,200 -1,500 Descending Denver Center
12:42PM 40.1664 -103.0539 308° West 379 436 29,900 -1,380 Descending Denver Center
12:43PM 40.2206 -103.1897 298° West 377 434 28,400 -960 Descending Denver Center
12:44PM 40.2669 -103.3097 297° West 384 442 28,000 -300 Descending Denver Center
12:45PM 40.3172 -103.4389 297° West 386 444 27,800 -1,200 Descending Denver Center
12:46PM 40.3717 -103.5781 297° West 386 444 25,600 -1,920 Descending Denver Center
12:47PM 40.3942 -103.7033 283° West 374 430 23,900 -2,520 Descending Denver Center
12:48PM 40.3769 -103.8497 261° West 365 420 20,400 -2,940 Descending Denver Center
12:49PM 40.3644 -103.9644 262° West 316 364 17,900 -2,460 Descending Denver Center
12:50PM 40.3544 -104.0836 264° West 309 356 15,400 -2,460 Descending Denver Center
12:51PM 40.3439 -104.1903 263° West 298 343 12,900 -2,160 Descending Denver Center
12:52PM 40.3331 -104.2883 262° West 276 318 10,900 -1,920 Descending Denver Center
12:53PM 40.3236 -104.3800 262° West 245 282 9,000 -1,380 Descending Denver Center
12:55PM 40.3150 -104.4608 262° West 229 264 8,100 -480 Descending Denver Center
12:56PM 40.2981 -104.5519 256° West 238 274 8,100  Level Denver Center
12:57PM 40.2878 -104.6406 261° West 245 282 8,100  Level Denver Center
12:58PM 40.2914 -104.7367 273° West 246 283 8,100 -300 Level Denver Center
12:59PM 40.2911 -104.8258 270° West 245 282 7,600 -540 Descending Denver Center
01:00PM 40.3003 -104.9200 277° West 247 284 7,100 -300 Descending Denver Center
01:01PM 40.3478 -104.9656 324° Northwest 216 249 7,100 -540 Level Denver Center
01:02PM 40.3969 -104.9875 341° North 175 201 6,100 -1,020 Descending Denver Center
01:03PM 40.4347 -105.0053 340° North 149 171 5,100 -360 Descending Denver Center
01:05PM 40.4667 -105.0167 345° North 154 177 5,000 -60 Descending Denver TRACON
01:06PM 40.4667 -105.0167 97° East 154 177 5,000  Level Denver TRACON